createdAt,value
2019-03-22T00:01:04.000Z,10.00
2019-03-22T00:03:32.350Z,9.73
2019-03-22T00:06:01.080Z,9.00
2019-03-22T00:08:29.142Z,9.80
2019-03-22T00:10:57.240Z,9.07
2019-03-22T00:13:25.361Z,10.00
2019-03-22T00:15:53.876Z,9.87
2019-03-22T00:18:21.990Z,10.63
2019-03-22T00:20:51.047Z,9.83
2019-03-22T00:23:19.613Z,10.30
2019-03-22T00:25:48.577Z,11.00
2019-03-22T00:28:17.340Z,9.93
2019-03-22T00:30:45.447Z,10.13
2019-03-22T00:33:14.301Z,10.33
2019-03-22T00:35:43.074Z,10.10
2019-03-22T00:38:11.479Z,9.80
2019-03-22T00:40:39.979Z,10.50
2019-03-22T00:43:08.040Z,9.87
2019-03-22T00:45:36.853Z,10.67
2019-03-22T00:48:05.633Z,10.03
2019-03-22T00:50:34.024Z,10.17
2019-03-22T00:53:02.529Z,9.97
2019-03-22T00:55:30.567Z,9.67
2019-03-22T00:57:59.407Z,10.07
2019-03-22T01:00:27.904Z,11.27
2019-03-22T01:02:56.285Z,10.67
2019-03-22T01:05:24.641Z,9.80
2019-03-22T01:07:52.918Z,10.50
2019-03-22T01:10:21.868Z,9.83
2019-03-22T01:12:50.197Z,9.87
2019-03-22T01:15:18.588Z,9.40
2019-03-22T01:17:46.698Z,10.27
2019-03-22T01:20:15.465Z,10.27
2019-03-22T01:22:44.000Z,9.93
2019-03-22T01:25:12.194Z,10.23
2019-03-22T01:27:41.527Z,9.70
2019-03-22T01:30:12.069Z,10.43
2019-03-22T01:32:40.205Z,10.07
2019-03-22T01:35:08.849Z,10.10
2019-03-22T01:37:37.622Z,10.70
2019-03-22T01:40:06.796Z,10.83
2019-03-22T01:42:35.549Z,10.57
2019-03-22T01:45:04.495Z,10.80
2019-03-22T01:47:32.771Z,10.60
2019-03-22T01:50:01.742Z,10.40
2019-03-22T01:52:30.365Z,10.47
2019-03-22T01:54:58.900Z,10.30
2019-03-22T01:57:27.597Z,10.70
2019-03-22T01:59:56.173Z,9.97
2019-03-22T02:02:24.546Z,11.03
2019-03-22T02:04:52.639Z,10.87
2019-03-22T02:07:21.613Z,9.87
2019-03-22T02:09:50.669Z,10.90
2019-03-22T02:12:18.759Z,10.90
2019-03-22T02:17:44.911Z,10.40
2019-03-22T02:20:14.189Z,10.77
2019-03-22T02:22:43.082Z,10.93
2019-03-22T02:25:12.270Z,10.43
2019-03-22T02:27:40.827Z,10.83
2019-03-22T02:30:09.137Z,10.57
2019-03-22T02:32:37.456Z,11.10
2019-03-22T02:35:07.119Z,10.07
2019-03-22T02:37:35.774Z,11.13
2019-03-22T02:40:05.182Z,10.13
2019-03-22T02:42:33.601Z,10.93
2019-03-22T02:45:01.792Z,10.87
2019-03-22T02:47:30.676Z,11.43
2019-03-22T02:49:58.764Z,10.77
2019-03-22T02:52:27.261Z,11.10
2019-03-22T02:54:56.158Z,11.37
2019-03-22T02:57:24.681Z,10.40
2019-03-22T02:59:53.097Z,10.30
2019-03-22T03:02:21.543Z,11.37
2019-03-22T03:04:50.030Z,11.37
2019-03-22T03:07:18.405Z,11.50
2019-03-22T03:09:47.106Z,11.47
2019-03-22T03:12:15.529Z,10.90
2019-03-22T03:14:43.607Z,11.20
2019-03-22T03:17:12.072Z,10.90
2019-03-22T03:19:42.050Z,12.00
2019-03-22T03:22:10.194Z,11.03
2019-03-22T03:24:39.093Z,11.37
2019-03-22T03:27:07.516Z,11.10
2019-03-22T03:29:35.570Z,11.00
2019-03-22T03:32:04.077Z,10.90
2019-03-22T03:34:32.228Z,10.87
2019-03-22T03:37:00.414Z,11.37
2019-03-22T03:39:28.568Z,10.90
2019-03-22T03:41:56.630Z,10.83
2019-03-22T03:44:24.990Z,11.93
2019-03-22T03:46:54.188Z,11.63
2019-03-22T03:49:22.749Z,11.80
2019-03-22T03:51:50.792Z,11.87
2019-03-22T03:54:19.007Z,11.27
2019-03-22T03:56:47.473Z,11.50
2019-03-22T03:59:16.623Z,10.97
2019-03-22T04:01:44.785Z,12.20
2019-03-22T04:04:12.827Z,11.87
2019-03-22T04:06:41.369Z,11.57
2019-03-22T04:09:09.797Z,12.37
2019-03-22T04:11:38.246Z,12.73
2019-03-22T04:14:06.355Z,11.93
2019-03-22T04:16:53.672Z,11.50
2019-03-22T04:19:21.696Z,10.80
2019-03-22T04:21:50.059Z,10.70
2019-03-22T04:24:18.152Z,11.27
2019-03-22T04:26:46.276Z,10.90
2019-03-22T04:29:14.766Z,11.87
2019-03-22T04:31:44.004Z,10.67
2019-03-22T04:34:12.363Z,11.97
2019-03-22T04:36:40.750Z,11.17
2019-03-22T04:39:09.247Z,11.37
2019-03-22T04:41:37.324Z,11.67
2019-03-22T04:44:05.563Z,11.37
2019-03-22T04:46:34.245Z,11.80
2019-03-22T04:49:02.809Z,11.43
2019-03-22T04:51:31.186Z,10.30
2019-03-22T04:54:00.843Z,10.33
2019-03-22T04:56:30.911Z,10.97
2019-03-22T04:59:01.084Z,11.27
2019-03-22T05:01:30.726Z,12.93
2019-03-22T05:04:00.955Z,12.53
2019-03-22T05:06:31.225Z,12.40
2019-03-22T05:09:00.764Z,12.43
2019-03-22T05:11:29.512Z,13.00
2019-03-22T05:14:01.099Z,13.47
2019-03-22T05:16:30.197Z,14.87
2019-03-22T05:19:03.526Z,13.60
2019-03-22T05:21:32.668Z,12.83
2019-03-22T05:24:04.192Z,13.27
2019-03-22T05:26:34.553Z,12.47
2019-03-22T05:29:05.594Z,13.20
2019-03-22T05:32:06.791Z,13.00
2019-03-22T05:34:35.690Z,12.63
2019-03-22T05:37:04.434Z,12.80
2019-03-22T05:39:32.499Z,12.90
2019-03-22T05:42:01.513Z,14.40
2019-03-22T05:44:30.178Z,13.80
2019-03-22T05:46:58.789Z,13.37
2019-03-22T05:49:27.193Z,13.07
2019-03-22T05:51:55.260Z,12.30
2019-03-22T05:54:24.030Z,12.30
2019-03-22T05:56:52.525Z,12.97
2019-03-22T05:59:20.637Z,12.10
2019-03-22T06:01:49.337Z,13.33
2019-03-22T06:04:17.467Z,12.23
2019-03-22T06:06:45.787Z,12.40
2019-03-22T06:09:13.938Z,13.10
2019-03-22T06:11:41.977Z,12.57
2019-03-22T06:14:10.109Z,12.70
2019-03-22T06:16:38.157Z,12.47
2019-03-22T06:19:06.626Z,12.23
2019-03-22T06:21:35.086Z,13.23
2019-03-22T06:24:03.419Z,12.07
2019-03-22T06:26:32.251Z,11.73
2019-03-22T06:29:00.850Z,14.43
2019-03-22T06:31:29.187Z,13.10
2019-03-22T06:33:58.095Z,12.20
2019-03-22T06:36:26.210Z,11.33
2019-03-22T06:38:56.025Z,12.40
2019-03-22T06:41:24.387Z,11.93
2019-03-22T06:43:52.428Z,12.47
2019-03-22T06:46:21.767Z,12.53
2019-03-22T06:48:50.340Z,12.63
2019-03-22T06:51:19.072Z,12.10
2019-03-22T06:53:47.270Z,12.77
2019-03-22T06:59:18.514Z,13.40
2019-03-22T07:01:47.162Z,13.67
2019-03-22T07:04:15.553Z,13.03
2019-03-22T07:06:43.683Z,13.07
2019-03-22T07:09:11.736Z,12.77
2019-03-22T07:11:41.862Z,13.50
2019-03-22T07:14:10.047Z,12.50
2019-03-22T07:16:38.414Z,12.30
2019-03-22T07:19:06.730Z,13.60
2019-03-22T07:21:34.822Z,12.37
2019-03-22T07:24:03.207Z,12.47
2019-03-22T07:26:31.837Z,12.43
2019-03-22T07:29:00.270Z,12.90
2019-03-22T07:31:29.167Z,12.50
2019-03-22T07:33:57.289Z,13.20
2019-03-22T07:36:25.687Z,13.03
2019-03-22T07:38:54.426Z,11.97
2019-03-22T07:41:22.395Z,12.60
2019-03-22T07:43:50.812Z,13.33
2019-03-22T07:46:18.812Z,12.40
2019-03-22T07:48:46.802Z,12.57
2019-03-22T07:51:14.791Z,13.40
2019-03-22T07:53:42.805Z,12.73
2019-03-22T07:56:10.771Z,12.60
2019-03-22T07:58:39.030Z,14.47
2019-03-22T08:01:07.013Z,12.60
2019-03-22T08:03:34.992Z,12.77
2019-03-22T08:06:02.963Z,12.93
2019-03-22T08:08:30.960Z,14.03
2019-03-22T08:10:58.934Z,13.37
2019-03-22T08:13:26.928Z,13.87
2019-03-22T08:15:57.454Z,12.78
2019-03-22T08:18:24.697Z,13.20
2019-03-22T08:20:52.727Z,12.75
2019-03-22T08:23:21.659Z,13.50
2019-03-22T08:25:49.796Z,13.10
2019-03-22T08:28:17.790Z,12.35
2019-03-22T08:30:47.567Z,13.50
2019-03-22T08:33:15.604Z,13.13
2019-03-22T08:35:43.596Z,12.58
2019-03-22T08:38:11.546Z,13.15
2019-03-22T08:40:39.570Z,12.63
2019-03-22T08:43:07.515Z,12.85
2019-03-22T08:45:35.537Z,13.00
2019-03-22T08:48:03.990Z,12.23
2019-03-22T08:50:31.986Z,13.05
2019-03-22T08:52:59.904Z,12.63
2019-03-22T08:55:27.892Z,12.63
2019-03-22T08:57:56.377Z,12.35
2019-03-22T09:00:24.384Z,11.95
2019-03-22T09:02:52.386Z,12.95
2019-03-22T09:05:20.413Z,12.85
2019-03-22T09:07:48.813Z,10.85
2019-03-22T09:10:16.854Z,11.30
2019-03-22T09:12:45.276Z,11.12
2019-03-22T09:15:13.265Z,11.03
2019-03-22T09:17:41.244Z,11.75
2019-03-22T09:20:09.286Z,9.88
2019-03-22T09:22:37.320Z,9.55
2019-03-22T09:25:05.858Z,9.65
2019-03-22T09:27:36.432Z,10.05
2019-03-22T09:30:05.248Z,9.68
2019-03-22T09:32:33.219Z,9.08
2019-03-22T09:35:01.373Z,10.08
2019-03-22T09:37:29.319Z,10.23
2019-03-22T09:39:57.287Z,9.48
2019-03-22T09:42:25.283Z,10.60
2019-03-22T09:44:53.369Z,9.33
2019-03-22T09:47:21.357Z,9.43
2019-03-22T09:49:51.225Z,10.23
2019-03-22T09:52:19.226Z,9.90
2019-03-22T09:54:47.213Z,10.05
2019-03-22T09:57:15.185Z,10.48
2019-03-22T09:59:43.275Z,10.20
2019-03-22T10:02:11.216Z,10.08
2019-03-22T10:04:39.273Z,9.30
2019-03-22T10:07:07.566Z,9.65
2019-03-22T10:09:35.566Z,9.83
2019-03-22T10:12:03.722Z,10.23
2019-03-22T10:14:31.808Z,9.38
2019-03-22T10:16:59.793Z,9.73
2019-03-22T10:19:27.839Z,9.83
2019-03-22T10:21:55.807Z,9.75
2019-03-22T10:24:43.043Z,8.83
2019-03-22T10:27:11.047Z,8.45
2019-03-22T10:29:39.007Z,8.30
2019-03-22T10:32:06.975Z,8.70
2019-03-22T10:34:35.000Z,9.80
2019-03-22T10:37:03.127Z,9.58
2019-03-22T10:39:31.260Z,9.35
2019-03-22T10:41:59.534Z,9.45
2019-03-22T10:44:27.605Z,9.93
2019-03-22T10:46:55.843Z,9.83
2019-03-22T10:49:23.850Z,9.00
2019-03-22T10:51:57.559Z,9.43
2019-03-22T10:54:21.694Z,9.48
2019-03-22T10:56:49.707Z,9.75
2019-03-22T10:59:17.660Z,9.73
2019-03-22T11:01:52.305Z,9.40
2019-03-22T11:04:15.806Z,9.68
2019-03-22T11:06:43.847Z,9.48
2019-03-22T11:09:11.939Z,9.88
2019-03-22T11:11:39.870Z,10.13
2019-03-22T11:14:07.844Z,9.23
2019-03-22T11:16:35.840Z,9.10
2019-03-22T11:19:04.007Z,9.63
2019-03-22T11:21:32.916Z,10.50
2019-03-22T11:24:00.942Z,9.63
2019-03-22T11:26:28.914Z,8.10
2019-03-22T11:28:56.904Z,8.88
2019-03-22T11:31:28.679Z,9.28
2019-03-22T11:33:55.195Z,9.45
2019-03-22T11:36:23.301Z,8.75
2019-03-22T11:38:51.357Z,9.03
2019-03-22T11:41:19.403Z,8.50
2019-03-22T11:43:47.482Z,8.78
2019-03-22T11:46:15.569Z,9.10
2019-03-22T11:48:43.603Z,9.38
2019-03-22T11:51:11.618Z,9.08
2019-03-22T11:53:39.669Z,9.73
2019-03-22T11:56:09.394Z,9.63
2019-03-22T11:58:37.487Z,9.63
2019-03-22T12:01:05.537Z,9.25
2019-03-22T12:03:33.538Z,8.93
2019-03-22T12:06:01.564Z,9.40
2019-03-22T12:08:29.570Z,9.35
2019-03-22T12:10:57.634Z,8.90
2019-03-22T12:13:25.745Z,9.88
2019-03-22T12:15:53.987Z,8.48
2019-03-22T12:18:21.990Z,8.63
2019-03-22T12:20:50.039Z,8.90
2019-03-22T12:23:18.319Z,8.70
2019-03-22T12:25:46.341Z,9.83
2019-03-22T12:28:14.365Z,9.58
2019-03-22T12:30:42.418Z,7.95
2019-03-22T12:33:10.445Z,8.60
2019-03-22T12:35:38.407Z,8.18
2019-03-22T12:38:06.460Z,7.83
2019-03-22T12:40:34.536Z,8.60
2019-03-22T12:43:02.551Z,8.43
2019-03-22T12:45:30.870Z,8.60
2019-03-22T12:47:58.912Z,8.40
2019-03-22T12:50:27.617Z,8.30
2019-03-22T12:52:55.615Z,8.45
2019-03-22T12:55:23.897Z,8.60
2019-03-22T12:57:51.888Z,8.60
2019-03-22T13:00:20.981Z,8.75
2019-03-22T13:02:49.112Z,9.93
2019-03-22T13:05:17.831Z,8.18
2019-03-22T13:07:45.859Z,8.10
2019-03-22T13:10:14.582Z,7.95
2019-03-22T13:12:42.747Z,8.03
2019-03-22T13:15:10.994Z,8.03
2019-03-22T13:17:39.043Z,8.88
2019-03-22T13:20:09.193Z,8.93
2019-03-22T13:22:37.429Z,7.70
2019-03-22T13:25:06.585Z,8.15
2019-03-22T13:27:35.208Z,7.92
2019-03-22T13:30:04.044Z,7.50
2019-03-22T13:32:32.242Z,7.65
2019-03-22T13:35:00.341Z,7.30
2019-03-22T13:37:28.443Z,8.25
2019-03-22T13:39:56.905Z,7.47
2019-03-22T13:42:44.616Z,7.28
2019-03-22T13:45:13.472Z,7.62
2019-03-22T13:47:41.507Z,7.85
2019-03-22T13:50:12.042Z,7.58
2019-03-22T13:52:40.175Z,7.80
2019-03-22T13:55:08.699Z,7.75
2019-03-22T13:57:37.232Z,8.28
2019-03-22T14:00:07.448Z,8.55
2019-03-22T14:02:35.518Z,7.60
2019-03-22T14:05:11.408Z,8.23
2019-03-22T14:07:39.804Z,7.47
2019-03-22T14:10:07.840Z,7.85
2019-03-22T14:12:37.301Z,7.62
2019-03-22T14:15:05.957Z,7.70
2019-03-22T14:17:34.295Z,6.47
2019-03-22T14:20:10.890Z,7.17
2019-03-22T14:22:32.786Z,7.05
2019-03-22T14:25:00.798Z,6.95
2019-03-22T14:27:28.903Z,6.25
2019-03-22T14:29:56.981Z,6.20
2019-03-22T14:32:25.010Z,5.72
2019-03-22T14:34:53.034Z,5.62
2019-03-22T14:37:21.090Z,5.60
2019-03-22T14:39:49.120Z,5.50
2019-03-22T14:42:17.199Z,5.35
2019-03-22T14:44:45.243Z,5.87
2019-03-22T14:47:13.582Z,5.78
2019-03-22T14:49:41.671Z,4.70
2019-03-22T14:52:09.823Z,5.20
2019-03-22T14:54:37.909Z,5.20
2019-03-22T14:57:05.946Z,4.90
2019-03-22T14:59:34.061Z,4.97
2019-03-22T15:02:02.156Z,4.75
2019-03-22T15:04:30.290Z,5.45
2019-03-22T15:06:58.362Z,5.00
2019-03-22T15:09:26.469Z,5.10
2019-03-22T15:11:54.510Z,5.20
2019-03-22T15:14:42.095Z,5.20
2019-03-22T15:17:35.355Z,4.97
2019-03-22T15:20:23.544Z,5.33
2019-03-22T15:23:16.977Z,5.10
2019-03-22T15:26:04.520Z,4.85
2019-03-22T15:28:50.908Z,5.40
2019-03-22T15:31:36.904Z,4.67
2019-03-22T15:34:24.332Z,4.85
2019-03-22T15:37:10.618Z,5.42
2019-03-22T15:39:56.981Z,4.90
2019-03-22T15:42:25.115Z,4.87
2019-03-22T15:44:53.221Z,5.53
2019-03-22T15:47:21.408Z,5.70
2019-03-22T15:49:49.482Z,5.22
2019-03-22T15:52:17.558Z,5.72
2019-03-22T15:54:45.635Z,5.22
2019-03-22T15:57:14.058Z,5.08
2019-03-22T15:59:42.104Z,5.42
2019-03-22T16:02:10.642Z,6.05
2019-03-22T16:04:38.762Z,6.25
2019-03-22T16:07:06.836Z,5.85
2019-03-22T16:09:35.193Z,5.92
2019-03-22T16:12:03.229Z,5.65
2019-03-22T16:14:31.331Z,5.65
2019-03-22T16:16:59.388Z,5.85
2019-03-22T16:19:27.424Z,6.67
2019-03-22T16:21:55.511Z,6.72
2019-03-22T16:24:23.587Z,6.60
2019-03-22T16:26:51.786Z,5.83
2019-03-22T16:29:19.882Z,6.53
2019-03-22T16:31:47.936Z,5.97
2019-03-22T16:34:16.179Z,6.97
2019-03-22T16:36:44.250Z,6.33
2019-03-22T16:39:12.608Z,6.87
2019-03-22T16:41:40.639Z,6.80
2019-03-22T16:44:09.011Z,6.28
2019-03-22T16:46:37.066Z,6.97
2019-03-22T16:49:06.230Z,6.83
2019-03-22T16:51:34.434Z,6.53
2019-03-22T16:54:02.445Z,6.80
2019-03-22T16:56:30.720Z,8.83
2019-03-22T16:58:58.794Z,9.38
2019-03-22T17:01:26.820Z,8.08
2019-03-22T17:04:03.923Z,6.53
2019-03-22T17:06:24.889Z,7.17
2019-03-22T17:08:53.058Z,6.37
2019-03-22T17:11:21.133Z,7.50
2019-03-22T17:13:49.253Z,6.85
2019-03-22T17:16:17.359Z,6.83
2019-03-22T17:18:46.006Z,7.55
2019-03-22T17:21:15.830Z,6.62
2019-03-22T17:23:43.897Z,6.97
2019-03-22T17:26:11.947Z,7.05
2019-03-22T17:28:40.041Z,8.15
2019-03-22T17:31:08.098Z,8.55
2019-03-22T17:33:36.146Z,7.92
2019-03-22T17:36:04.197Z,8.55
2019-03-22T17:38:32.255Z,8.30
2019-03-22T17:41:00.475Z,9.10
2019-03-22T17:43:28.797Z,8.78
2019-03-22T17:45:56.820Z,8.55
2019-03-22T17:48:24.959Z,11.65
2019-03-22T17:50:53.070Z,14.28
2019-03-22T17:53:21.219Z,14.65
2019-03-22T17:55:49.421Z,12.65
2019-03-22T17:58:17.525Z,10.98
2019-03-22T18:00:46.640Z,11.18
2019-03-22T18:03:14.904Z,9.88
2019-03-22T18:05:42.954Z,9.78
2019-03-22T18:08:11.046Z,10.75
2019-03-22T18:10:39.234Z,8.65
2019-03-22T18:13:07.791Z,9.35
2019-03-22T18:15:36.175Z,9.83
2019-03-22T18:18:04.216Z,11.48
2019-03-22T18:20:32.468Z,10.50
2019-03-22T18:23:00.538Z,10.82
2019-03-22T18:25:28.727Z,11.00
2019-03-22T18:27:57.263Z,10.70
2019-03-22T18:30:25.666Z,11.68
2019-03-22T18:32:54.034Z,11.73
2019-03-22T18:35:22.332Z,10.53
2019-03-22T18:37:51.021Z,13.20
2019-03-22T18:40:19.154Z,11.90
2019-03-22T18:42:47.756Z,11.95
2019-03-22T18:45:15.877Z,11.57
2019-03-22T18:47:43.939Z,10.50
2019-03-22T18:50:12.390Z,12.63
2019-03-22T18:52:40.464Z,13.58
2019-03-22T18:55:08.865Z,11.93
2019-03-22T18:57:36.953Z,12.47
2019-03-22T19:00:06.103Z,13.35
2019-03-22T19:02:34.605Z,12.80
2019-03-22T19:05:02.733Z,15.78
2019-03-22T19:07:30.777Z,12.85
2019-03-22T19:09:58.926Z,12.50
2019-03-22T19:12:27.004Z,12.55
2019-03-22T19:14:55.154Z,14.55
2019-03-22T19:17:23.232Z,14.58
2019-03-22T19:19:51.302Z,14.30
2019-03-22T19:22:20.452Z,14.03
2019-03-22T19:24:48.874Z,13.35
2019-03-22T19:27:16.918Z,14.00
2019-03-22T19:29:45.066Z,13.90
2019-03-22T19:32:13.930Z,17.27
2019-03-22T19:34:42.086Z,15.30
2019-03-22T19:37:10.553Z,13.93
2019-03-22T19:39:38.785Z,14.43
2019-03-22T19:42:06.838Z,14.65
2019-03-22T19:44:35.391Z,14.55
2019-03-22T19:47:03.540Z,13.95
2019-03-22T19:49:31.599Z,13.20
2019-03-22T19:52:01.188Z,12.47
2019-03-22T19:54:29.706Z,11.88
2019-03-22T19:56:57.830Z,10.50
2019-03-22T19:59:27.141Z,12.82
2019-03-22T20:01:55.219Z,10.20
2019-03-22T20:04:24.144Z,10.18
2019-03-22T20:06:52.196Z,10.90
2019-03-22T20:09:20.487Z,8.93
2019-03-22T20:11:48.630Z,8.78
2019-03-22T20:14:17.347Z,9.08
2019-03-22T20:16:46.307Z,10.30
2019-03-22T20:19:15.290Z,9.78
2019-03-22T20:21:44.083Z,8.70
2019-03-22T20:24:12.870Z,9.43
2019-03-22T20:26:42.490Z,10.00
2019-03-22T20:29:29.896Z,9.00
2019-03-22T20:31:58.762Z,8.18
2019-03-22T20:34:27.314Z,8.28
2019-03-22T20:36:55.912Z,9.33
2019-03-22T20:39:23.952Z,8.45
2019-03-22T20:41:52.981Z,10.50
2019-03-22T20:44:21.478Z,9.08
2019-03-22T20:46:49.885Z,10.58
2019-03-22T20:49:18.098Z,9.93
2019-03-22T20:51:46.425Z,10.15
2019-03-22T20:54:14.884Z,9.68
2019-03-22T20:56:45.014Z,10.40
2019-03-22T20:59:13.732Z,10.38
2019-03-22T21:01:41.762Z,9.98
2019-03-22T21:04:09.852Z,10.43
2019-03-22T21:06:38.766Z,9.85
2019-03-22T21:09:07.424Z,10.75
2019-03-22T21:11:39.528Z,10.68
2019-03-22T21:14:07.809Z,12.35
2019-03-22T21:16:36.954Z,11.08
2019-03-22T21:19:05.739Z,13.18
2019-03-22T21:21:36.586Z,12.57
2019-03-22T21:24:04.931Z,12.25
2019-03-22T21:26:33.695Z,10.80
2019-03-22T21:29:01.866Z,10.17
2019-03-22T21:31:29.954Z,10.25
2019-03-22T21:33:58.598Z,9.03
2019-03-22T21:36:27.823Z,10.20
2019-03-22T21:38:55.968Z,9.90
2019-03-22T21:41:24.377Z,10.85
2019-03-22T21:43:52.957Z,10.60
2019-03-22T21:46:22.211Z,9.20
2019-03-22T21:48:52.718Z,9.70
2019-03-22T21:51:21.335Z,10.40
2019-03-22T21:53:50.855Z,10.93
2019-03-22T21:56:19.449Z,12.03
2019-03-22T21:58:48.491Z,11.48
2019-03-22T22:01:17.784Z,12.23
2019-03-22T22:03:46.798Z,11.53
2019-03-22T22:06:15.398Z,11.50
2019-03-22T22:08:44.919Z,11.03
2019-03-22T22:11:13.497Z,10.80
2019-03-22T22:14:00.835Z,10.80
2019-03-22T22:16:33.300Z,10.70
2019-03-22T22:19:01.693Z,9.93
2019-03-22T22:21:31.427Z,10.83
2019-03-22T22:24:00.411Z,9.57
2019-03-22T22:26:28.544Z,9.93
2019-03-22T22:28:57.111Z,10.83
2019-03-22T22:31:26.428Z,10.43
2019-03-22T22:33:55.080Z,10.43
2019-03-22T22:36:23.870Z,11.60
2019-03-22T22:38:52.344Z,12.10
2019-03-22T22:41:21.477Z,12.00
2019-03-22T22:43:50.219Z,10.80
2019-03-22T22:46:19.634Z,11.50
2019-03-22T22:48:48.251Z,11.43
2019-03-22T22:51:17.390Z,9.70
2019-03-22T22:53:45.882Z,9.70
2019-03-22T22:56:15.229Z,10.33
2019-03-22T22:58:43.902Z,10.10
2019-03-22T23:01:12.316Z,9.63
2019-03-22T23:03:40.878Z,9.73
2019-03-22T23:06:09.946Z,9.97
2019-03-22T23:08:38.022Z,10.17
2019-03-22T23:11:06.115Z,12.23
2019-03-22T23:13:34.917Z,10.93
2019-03-22T23:16:04.399Z,10.90
2019-03-22T23:18:32.756Z,11.40
2019-03-22T23:21:01.704Z,11.40
2019-03-22T23:23:30.170Z,11.60
2019-03-22T23:25:59.216Z,13.10
2019-03-22T23:28:27.610Z,12.33
2019-03-22T23:30:56.404Z,12.53
2019-03-22T23:33:24.542Z,11.53
2019-03-22T23:35:54.118Z,10.90
2019-03-22T23:38:22.709Z,10.53
2019-03-22T23:40:51.483Z,11.93
2019-03-22T23:43:19.942Z,9.83
2019-03-22T23:45:48.865Z,10.17
2019-03-22T23:48:36.487Z,10.53
2019-03-22T23:51:06.861Z,11.10
2019-03-22T23:53:34.932Z,11.77
2019-03-22T23:56:03.040Z,11.10
2019-03-22T23:58:31.145Z,10.00
